Carlisle, Pennsylvania
Current Conditions -  °F | °C
As of 6:56 AM on Tuesday 21 Oct 2014 (Local Time) from KCXY Reporting Station
Moderate Fog Moderate Fog  
Wind Chill: 51°   Ceiling: 300
Heat Index: 51°   Visibility: 0.5mi
Dew Point: 50°   Wind: 0mph
Humidity: 96%   Direction: NA
Pressure: 29.86"   Gusts: NA
Location:  40.2°N, 77.19°W
Report Text: KCXY 211056Z 00000KT 1/2SM R08/2800V5000FT FG OVC003 11/10 A2986 RMK AO2 SLP113 T01060100
Loading
Personal Weather Stations






























Interactive Weather Map
Tropical Storm Tracking
New forecast layout! Learn more

10-Day Weather Forecast

Advertisements
Track Severe Weather on mobile